sensor_id;sensor_type;location;lat;lon;timestamp;pressure;altitude;pressure_sealevel;temperature;humidity
10921;BME280;5513;50.580;8.818;2024-03-25T00:00:15;98076.47;;;6.96;100.00
10921;BME280;5513;50.580;8.818;2024-03-25T00:03:00;98078.03;;;6.85;100.00
10921;BME280;5513;50.580;8.818;2024-03-25T00:05:46;98079.41;;;6.91;100.00
10921;BME280;5513;50.580;8.818;2024-03-25T00:08:32;98085.38;;;6.80;100.00
10921;BME280;5513;50.580;8.818;2024-03-25T00:11:17;98088.22;;;6.77;100.00
10921;BME280;5513;50.580;8.818;2024-03-25T00:14:02;98091.34;;;6.70;100.00
10921;BME280;5513;50.580;8.818;2024-03-25T00:16:47;98096.50;;;6.71;100.00
10921;BME280;5513;50.580;8.818;2024-03-25T00:19:33;98101.88;;;6.70;100.00
10921;BME280;5513;50.580;8.818;2024-03-25T00:22:21;98105.75;;;6.64;100.00
10921;BME280;5513;50.580;8.818;2024-03-25T00:25:09;98103.44;;;6.59;100.00
10921;BME280;5513;50.580;8.818;2024-03-25T00:27:54;98108.47;;;6.63;100.00
10921;BME280;5513;50.580;8.818;2024-03-25T00:30:41;98103.53;;;6.58;100.00
10921;BME280;5513;50.580;8.818;2024-03-25T00:33:27;98108.81;;;6.71;100.00
10921;BME280;5513;50.580;8.818;2024-03-25T00:36:13;98099.84;;;6.60;100.00
10921;BME280;5513;50.580;8.818;2024-03-25T00:38:59;98104.25;;;6.60;100.00
10921;BME280;5513;50.580;8.818;2024-03-25T00:41:45;98111.31;;;6.59;100.00
10921;BME280;5513;50.580;8.818;2024-03-25T00:44:29;98111.78;;;6.66;100.00
10921;BME280;5513;50.580;8.818;2024-03-25T00:47:15;98110.91;;;6.66;100.00
10921;BME280;5513;50.580;8.818;2024-03-25T00:50:00;98115.25;;;6.67;100.00
10921;BME280;5513;50.580;8.818;2024-03-25T00:52:45;98112.41;;;6.70;100.00
10921;BME280;5513;50.580;8.818;2024-03-25T00:55:32;98116.34;;;6.77;100.00
10921;BME280;5513;50.580;8.818;2024-03-25T00:58:18;98114.81;;;6.73;100.00
10921;BME280;5513;50.580;8.818;2024-03-25T01:01:02;98114.66;;;6.76;100.00
10921;BME280;5513;50.580;8.818;2024-03-25T01:03:48;98110.75;;;6.81;100.00
10921;BME280;5513;50.580;8.818;2024-03-25T01:06:33;98109.56;;;6.73;100.00
10921;BME280;5513;50.580;8.818;2024-03-25T01:09:19;98102.22;;;6.78;100.00
10921;BME280;5513;50.580;8.818;2024-03-25T01:12:05;98105.25;;;6.72;100.00
10921;BME280;5513;50.580;8.818;2024-03-25T01:14:51;98106.09;;;6.72;100.00
10921;BME280;5513;50.580;8.818;2024-03-25T01:17:36;98104.06;;;6.63;100.00
10921;BME280;5513;50.580;8.818;2024-03-25T01:20:22;98095.66;;;6.71;100.00
10921;BME280;5513;50.580;8.818;2024-03-25T01:23:06;98108.59;;;6.61;100.00
10921;BME280;5513;50.580;8.818;2024-03-25T01:25:51;98104.38;;;6.58;100.00
10921;BME280;5513;50.580;8.818;2024-03-25T01:28:38;98115.88;;;6.43;100.00
10921;BME280;5513;50.580;8.818;2024-03-25T01:31:24;98116.91;;;6.41;100.00
10921;BME280;5513;50.580;8.818;2024-03-25T01:34:08;98120.59;;;6.38;100.00
10921;BME280;5513;50.580;8.818;2024-03-25T01:36:54;98128.00;;;6.31;100.00
10921;BME280;5513;50.580;8.818;2024-03-25T01:39:38;98130.00;;;6.28;100.00
10921;BME280;5513;50.580;8.818;2024-03-25T01:42:24;98131.13;;;6.24;100.00
10921;BME280;5513;50.580;8.818;2024-03-25T01:45:10;98134.06;;;6.19;100.00
10921;BME280;5513;50.580;8.818;2024-03-25T01:47:56;98137.78;;;6.15;100.00
10921;BME280;5513;50.580;8.818;2024-03-25T01:50:44;98142.69;;;6.07;100.00
10921;BME280;5513;50.580;8.818;2024-03-25T01:53:31;98147.66;;;6.12;100.00
10921;BME280;5513;50.580;8.818;2024-03-25T01:56:16;98150.88;;;6.02;100.00
10921;BME280;5513;50.580;8.818;2024-03-25T01:59:03;98155.53;;;5.97;100.00
10921;BME280;5513;50.580;8.818;2024-03-25T02:01:50;98158.47;;;5.93;100.00
10921;BME280;5513;50.580;8.818;2024-03-25T02:04:35;98159.94;;;5.83;100.00
10921;BME280;5513;50.580;8.818;2024-03-25T02:07:21;98165.66;;;5.75;100.00
10921;BME280;5513;50.580;8.818;2024-03-25T02:10:08;98161.69;;;5.54;100.00
10921;BME280;5513;50.580;8.818;2024-03-25T02:12:55;98171.72;;;5.47;100.00
10921;BME280;5513;50.580;8.818;2024-03-25T02:15:41;98171.25;;;5.40;100.00
10921;BME280;5513;50.580;8.818;2024-03-25T02:18:27;98161.44;;;5.28;100.00
10921;BME280;5513;50.580;8.818;2024-03-25T02:21:13;98171.19;;;5.26;100.00
10921;BME280;5513;50.580;8.818;2024-03-25T02:23:59;98176.34;;;5.28;100.00
10921;BME280;5513;50.580;8.818;2024-03-25T02:26:47;98184.81;;;5.33;100.00
10921;BME280;5513;50.580;8.818;2024-03-25T02:29:35;98181.28;;;5.48;100.00
10921;BME280;5513;50.580;8.818;2024-03-25T02:32:21;98180.97;;;5.38;100.00
10921;BME280;5513;50.580;8.818;2024-03-25T02:35:08;98181.50;;;5.29;100.00
10921;BME280;5513;50.580;8.818;2024-03-25T02:37:55;98180.56;;;5.30;100.00
10921;BME280;5513;50.580;8.818;2024-03-25T02:40:40;98196.72;;;5.38;100.00
10921;BME280;5513;50.580;8.818;2024-03-25T02:43:27;98187.97;;;5.24;100.00
10921;BME280;5513;50.580;8.818;2024-03-25T02:46:12;98184.72;;;5.34;100.00
10921;BME280;5513;50.580;8.818;2024-03-25T02:48:57;98182.09;;;5.34;100.00
10921;BME280;5513;50.580;8.818;2024-03-25T02:51:42;98192.84;;;5.30;100.00
10921;BME280;5513;50.580;8.818;2024-03-25T02:54:28;98193.13;;;5.25;100.00
10921;BME280;5513;50.580;8.818;2024-03-25T02:57:12;98194.63;;;5.29;100.00
10921;BME280;5513;50.580;8.818;2024-03-25T02:59:59;98193.25;;;5.38;100.00
10921;BME280;5513;50.580;8.818;2024-03-25T03:02:44;98195.13;;;5.36;100.00
10921;BME280;5513;50.580;8.818;2024-03-25T03:05:30;98188.31;;;5.47;100.00
10921;BME280;5513;50.580;8.818;2024-03-25T03:08:15;98186.72;;;5.59;100.00
10921;BME280;5513;50.580;8.818;2024-03-25T03:11:00;98188.91;;;5.67;100.00
10921;BME280;5513;50.580;8.818;2024-03-25T03:13:44;98188.81;;;5.68;100.00
10921;BME280;5513;50.580;8.818;2024-03-25T03:16:32;98186.41;;;5.80;100.00
10921;BME280;5513;50.580;8.818;2024-03-25T03:19:16;98183.94;;;5.77;100.00
10921;BME280;5513;50.580;8.818;2024-03-25T03:22:02;98189.75;;;5.67;100.00
10921;BME280;5513;50.580;8.818;2024-03-25T03:24:47;98190.03;;;5.77;100.00
10921;BME280;5513;50.580;8.818;2024-03-25T03:27:33;98186.78;;;5.73;100.00
10921;BME280;5513;50.580;8.818;2024-03-25T03:30:18;98200.75;;;5.60;100.00
10921;BME280;5513;50.580;8.818;2024-03-25T03:33:05;98189.09;;;5.64;100.00
10921;BME280;5513;50.580;8.818;2024-03-25T03:35:52;98184.63;;;5.80;100.00
10921;BME280;5513;50.580;8.818;2024-03-25T03:38:39;98179.19;;;5.83;100.00
10921;BME280;5513;50.580;8.818;2024-03-25T03:41:24;98181.50;;;5.73;100.00
10921;BME280;5513;50.580;8.818;2024-03-25T03:44:09;98173.72;;;5.72;100.00
10921;BME280;5513;50.580;8.818;2024-03-25T03:46:54;98174.88;;;5.82;100.00
10921;BME280;5513;50.580;8.818;2024-03-25T03:49:41;98178.22;;;5.84;100.00
10921;BME280;5513;50.580;8.818;2024-03-25T03:52:26;98172.69;;;5.74;100.00
10921;BME280;5513;50.580;8.818;2024-03-25T03:55:11;98174.47;;;5.74;100.00
10921;BME280;5513;50.580;8.818;2024-03-25T03:57:56;98175.91;;;5.80;100.00
10921;BME280;5513;50.580;8.818;2024-03-25T04:00:42;98180.75;;;5.86;100.00
10921;BME280;5513;50.580;8.818;2024-03-25T04:03:27;98175.81;;;5.81;100.00
10921;BME280;5513;50.580;8.818;2024-03-25T04:06:15;98178.59;;;5.78;100.00
10921;BME280;5513;50.580;8.818;2024-03-25T04:09:00;98178.88;;;5.73;100.00
10921;BME280;5513;50.580;8.818;2024-03-25T04:11:46;98177.59;;;5.81;100.00
10921;BME280;5513;50.580;8.818;2024-03-25T04:14:31;98183.09;;;5.76;100.00
10921;BME280;5513;50.580;8.818;2024-03-25T04:17:17;98178.34;;;5.83;100.00
10921;BME280;5513;50.580;8.818;2024-03-25T04:20:03;98182.75;;;5.82;100.00
10921;BME280;5513;50.580;8.818;2024-03-25T04:22:56;98182.78;;;5.96;100.00
10921;BME280;5513;50.580;8.818;2024-03-25T04:25:44;98180.63;;;6.03;100.00
10921;BME280;5513;50.580;8.818;2024-03-25T04:28:29;98182.28;;;5.90;100.00
10921;BME280;5513;50.580;8.818;2024-03-25T04:31:14;98180.44;;;5.92;100.00
10921;BME280;5513;50.580;8.818;2024-03-25T04:33:59;98183.28;;;5.87;100.00
10921;BME280;5513;50.580;8.818;2024-03-25T04:36:45;98194.00;;;5.84;100.00
10921;BME280;5513;50.580;8.818;2024-03-25T04:39:31;98197.38;;;5.86;100.00
10921;BME280;5513;50.580;8.818;2024-03-25T04:42:16;98197.47;;;5.70;100.00
10921;BME280;5513;50.580;8.818;2024-03-25T04:45:01;98199.06;;;5.73;100.00
10921;BME280;5513;50.580;8.818;2024-03-25T04:47:46;98209.56;;;5.73;100.00
10921;BME280;5513;50.580;8.818;2024-03-25T04:50:31;98217.81;;;5.67;100.00
10921;BME280;5513;50.580;8.818;2024-03-25T04:53:16;98222.97;;;5.68;100.00
10921;BME280;5513;50.580;8.818;2024-03-25T04:56:02;98222.50;;;5.76;100.00
10921;BME280;5513;50.580;8.818;2024-03-25T04:58:47;98228.28;;;5.97;100.00
10921;BME280;5513;50.580;8.818;2024-03-25T05:01:32;98227.00;;;6.04;100.00
10921;BME280;5513;50.580;8.818;2024-03-25T05:04:17;98227.50;;;5.81;100.00
10921;BME280;5513;50.580;8.818;2024-03-25T05:07:03;98231.22;;;5.92;100.00
10921;BME280;5513;50.580;8.818;2024-03-25T05:09:47;98231.72;;;5.83;100.00
10921;BME280;5513;50.580;8.818;2024-03-25T05:12:34;98227.94;;;6.03;100.00
10921;BME280;5513;50.580;8.818;2024-03-25T05:15:19;98228.81;;;5.88;100.00
10921;BME280;5513;50.580;8.818;2024-03-25T05:18:04;98233.75;;;5.94;100.00
10921;BME280;5513;50.580;8.818;2024-03-25T05:20:49;98227.97;;;5.87;100.00
10921;BME280;5513;50.580;8.818;2024-03-25T05:23:34;98229.28;;;5.80;100.00
10921;BME280;5513;50.580;8.818;2024-03-25T05:26:19;98232.53;;;5.99;100.00
10921;BME280;5513;50.580;8.818;2024-03-25T05:29:05;98229.53;;;5.91;100.00
10921;BME280;5513;50.580;8.818;2024-03-25T05:31:58;98239.31;;;5.88;100.00
10921;BME280;5513;50.580;8.818;2024-03-25T05:34:43;98227.44;;;5.96;100.00
10921;BME280;5513;50.580;8.818;2024-03-25T05:37:28;98240.53;;;5.82;100.00
10921;BME280;5513;50.580;8.818;2024-03-25T05:40:13;98240.97;;;6.05;100.00
10921;BME280;5513;50.580;8.818;2024-03-25T05:42:58;98249.44;;;6.10;100.00
10921;BME280;5513;50.580;8.818;2024-03-25T05:45:51;98248.97;;;6.03;100.00
10921;BME280;5513;50.580;8.818;2024-03-25T05:48:36;98253.38;;;6.02;100.00
10921;BME280;5513;50.580;8.818;2024-03-25T05:51:21;98253.38;;;6.02;100.00
10921;BME280;5513;50.580;8.818;2024-03-25T05:54:06;98247.66;;;6.10;100.00
10921;BME280;5513;50.580;8.818;2024-03-25T05:56:51;98249.63;;;6.21;100.00
10921;BME280;5513;50.580;8.818;2024-03-25T05:59:36;98251.03;;;6.12;100.00
10921;BME280;5513;50.580;8.818;2024-03-25T06:02:22;98256.47;;;6.09;100.00
10921;BME280;5513;50.580;8.818;2024-03-25T06:05:07;98250.00;;;6.00;100.00
10921;BME280;5513;50.580;8.818;2024-03-25T06:07:52;98253.94;;;6.22;100.00
10921;BME280;5513;50.580;8.818;2024-03-25T06:10:37;98262.69;;;6.08;100.00
10921;BME280;5513;50.580;8.818;2024-03-25T06:13:22;98269.88;;;6.05;100.00
10921;BME280;5513;50.580;8.818;2024-03-25T06:16:07;98265.66;;;6.16;100.00
10921;BME280;5513;50.580;8.818;2024-03-25T06:18:53;98275.53;;;5.98;100.00
10921;BME280;5513;50.580;8.818;2024-03-25T06:21:38;98266.44;;;5.88;100.00
10921;BME280;5513;50.580;8.818;2024-03-25T06:24:23;98272.56;;;5.89;100.00
10921;BME280;5513;50.580;8.818;2024-03-25T06:27:08;98270.19;;;6.00;100.00
10921;BME280;5513;50.580;8.818;2024-03-25T06:29:53;98274.19;;;5.91;100.00
10921;BME280;5513;50.580;8.818;2024-03-25T06:32:38;98276.28;;;6.00;100.00
10921;BME280;5513;50.580;8.818;2024-03-25T06:35:43;98277.72;;;6.20;100.00
10921;BME280;5513;50.580;8.818;2024-03-25T06:38:29;98280.31;;;6.06;100.00
10921;BME280;5513;50.580;8.818;2024-03-25T06:41:14;98281.53;;;6.00;100.00
10921;BME280;5513;50.580;8.818;2024-03-25T06:43:58;98281.44;;;6.16;100.00
10921;BME280;5513;50.580;8.818;2024-03-25T06:46:43;98282.31;;;6.31;100.00
10921;BME280;5513;50.580;8.818;2024-03-25T06:49:28;98285.97;;;6.43;100.00
10921;BME280;5513;50.580;8.818;2024-03-25T06:52:14;98281.56;;;6.43;100.00
10921;BME280;5513;50.580;8.818;2024-03-25T06:54:59;98287.56;;;6.59;100.00
10921;BME280;5513;50.580;8.818;2024-03-25T06:57:43;98285.13;;;6.56;100.00
10921;BME280;5513;50.580;8.818;2024-03-25T07:00:28;98291.16;;;6.58;100.00
10921;BME280;5513;50.580;8.818;2024-03-25T07:03:14;98295.56;;;6.44;100.00
10921;BME280;5513;50.580;8.818;2024-03-25T07:06:00;98292.53;;;6.64;100.00
10921;BME280;5513;50.580;8.818;2024-03-25T07:08:46;98294.03;;;6.54;100.00
10921;BME280;5513;50.580;8.818;2024-03-25T07:11:31;98295.66;;;6.71;100.00
10921;BME280;5513;50.580;8.818;2024-03-25T07:14:16;98301.28;;;6.65;100.00
10921;BME280;5513;50.580;8.818;2024-03-25T07:17:01;98296.56;;;6.84;100.00
10921;BME280;5513;50.580;8.818;2024-03-25T07:19:45;98300.59;;;6.75;100.00
10921;BME280;5513;50.580;8.818;2024-03-25T07:22:30;98297.53;;;6.69;100.00
10921;BME280;5513;50.580;8.818;2024-03-25T07:25:17;98292.97;;;6.85;100.00
10921;BME280;5513;50.580;8.818;2024-03-25T07:28:03;98301.84;;;6.70;100.00
10921;BME280;5513;50.580;8.818;2024-03-25T07:30:49;98295.59;;;6.99;100.00
10921;BME280;5513;50.580;8.818;2024-03-25T07:33:34;98307.72;;;7.16;100.00
10921;BME280;5513;50.580;8.818;2024-03-25T07:36:19;98306.06;;;7.28;100.00
10921;BME280;5513;50.580;8.818;2024-03-25T07:39:04;98309.09;;;7.49;100.00
10921;BME280;5513;50.580;8.818;2024-03-25T07:41:51;98296.88;;;7.47;100.00
10921;BME280;5513;50.580;8.818;2024-03-25T07:44:36;98294.13;;;7.49;100.00
10921;BME280;5513;50.580;8.818;2024-03-25T07:47:21;98296.13;;;7.18;100.00
10921;BME280;5513;50.580;8.818;2024-03-25T07:50:07;98287.84;;;7.25;100.00
10921;BME280;5513;50.580;8.818;2024-03-25T07:52:52;98290.25;;;7.55;100.00
10921;BME280;5513;50.580;8.818;2024-03-25T07:55:37;98295.41;;;7.96;100.00
10921;BME280;5513;50.580;8.818;2024-03-25T07:58:24;98296.69;;;8.16;100.00
10921;BME280;5513;50.580;8.818;2024-03-25T08:01:09;98297.53;;;8.29;100.00
10921;BME280;5513;50.580;8.818;2024-03-25T08:03:54;98299.03;;;8.20;100.00
10921;BME280;5513;50.580;8.818;2024-03-25T08:06:39;98292.50;;;8.39;100.00
10921;BME280;5513;50.580;8.818;2024-03-25T08:09:24;98300.72;;;8.34;100.00
10921;BME280;5513;50.580;8.818;2024-03-25T08:12:09;98287.97;;;8.79;100.00
10921;BME280;5513;50.580;8.818;2024-03-25T08:14:55;98299.75;;;8.86;99.38
10921;BME280;5513;50.580;8.818;2024-03-25T08:17:40;98287.38;;;8.99;95.14
10921;BME280;5513;50.580;8.818;2024-03-25T08:20:25;98290.38;;;8.82;94.17
10921;BME280;5513;50.580;8.818;2024-03-25T08:23:10;98279.00;;;8.69;94.56
10921;BME280;5513;50.580;8.818;2024-03-25T08:25:55;98276.13;;;8.72;93.78
10921;BME280;5513;50.580;8.818;2024-03-25T08:28:40;98276.13;;;8.72;91.04
10921;BME280;5513;50.580;8.818;2024-03-25T08:31:26;98281.97;;;9.37;89.69
10921;BME280;5513;50.580;8.818;2024-03-25T08:34:11;98286.75;;;9.91;84.34
10921;BME280;5513;50.580;8.818;2024-03-25T08:36:56;98282.66;;;9.87;76.99
10921;BME280;5513;50.580;8.818;2024-03-25T08:39:41;98276.84;;;9.82;74.27
10921;BME280;5513;50.580;8.818;2024-03-25T08:42:25;98281.09;;;9.85;72.41
10921;BME280;5513;50.580;8.818;2024-03-25T08:45:10;98275.97;;;9.70;75.36
10921;BME280;5513;50.580;8.818;2024-03-25T08:47:56;98286.81;;;9.07;74.51
10921;BME280;5513;50.580;8.818;2024-03-25T08:50:41;98283.97;;;8.60;75.71
10921;BME280;5513;50.580;8.818;2024-03-25T08:53:26;98284.03;;;8.08;80.30
10921;BME280;5513;50.580;8.818;2024-03-25T08:56:11;98283.84;;;8.24;82.37
10921;BME280;5513;50.580;8.818;2024-03-25T08:58:55;98283.91;;;8.10;83.49
10921;BME280;5513;50.580;8.818;2024-03-25T09:01:40;98280.97;;;8.01;85.25
10921;BME280;5513;50.580;8.818;2024-03-25T09:04:27;98285.34;;;8.53;85.88
10921;BME280;5513;50.580;8.818;2024-03-25T09:07:13;98287.03;;;9.04;84.26
10921;BME280;5513;50.580;8.818;2024-03-25T09:09:58;98277.63;;;8.63;84.28
10921;BME280;5513;50.580;8.818;2024-03-25T09:13:01;98280.56;;;8.71;83.97
10921;BME280;5513;50.580;8.818;2024-03-25T09:15:46;98280.13;;;8.77;81.71
10921;BME280;5513;50.580;8.818;2024-03-25T09:18:31;98276.56;;;8.78;80.55
10921;BME280;5513;50.580;8.818;2024-03-25T09:21:17;98274.97;;;8.63;80.05
10921;BME280;5513;50.580;8.818;2024-03-25T09:24:03;98272.66;;;9.08;80.35
10921;BME280;5513;50.580;8.818;2024-03-25T09:26:49;98275.16;;;9.46;76.06
10921;BME280;5513;50.580;8.818;2024-03-25T09:29:34;98271.91;;;9.78;72.36
10921;BME280;5513;50.580;8.818;2024-03-25T09:32:19;98264.63;;;10.39;68.22
10921;BME280;5513;50.580;8.818;2024-03-25T09:35:04;98265.19;;;11.09;65.71
10921;BME280;5513;50.580;8.818;2024-03-25T09:37:51;98247.38;;;12.08;62.44
10921;BME280;5513;50.580;8.818;2024-03-25T09:40:40;98242.97;;;12.18;58.80
10921;BME280;5513;50.580;8.818;2024-03-25T09:43:33;98240.09;;;12.10;55.35
10921;BME280;5513;50.580;8.818;2024-03-25T09:46:23;98233.91;;;11.67;55.68
10921;BME280;5513;50.580;8.818;2024-03-25T09:49:08;98221.88;;;11.31;56.17
10921;BME280;5513;50.580;8.818;2024-03-25T09:51:53;98232.22;;;11.34;56.77
10921;BME280;5513;50.580;8.818;2024-03-25T09:54:39;98227.03;;;11.65;53.88
10921;BME280;5513;50.580;8.818;2024-03-25T09:57:24;98208.13;;;11.90;53.06
10921;BME280;5513;50.580;8.818;2024-03-25T10:00:10;98217.84;;;11.80;53.96
10921;BME280;5513;50.580;8.818;2024-03-25T10:03:00;98213.69;;;12.08;54.74
10921;BME280;5513;50.580;8.818;2024-03-25T10:05:45;98213.31;;;12.83;52.12
10921;BME280;5513;50.580;8.818;2024-03-25T10:08:31;98200.00;;;12.74;52.31
10921;BME280;5513;50.580;8.818;2024-03-25T10:11:17;98213.38;;;12.63;53.51
10921;BME280;5513;50.580;8.818;2024-03-25T10:14:02;98213.31;;;11.39;52.94
10921;BME280;5513;50.580;8.818;2024-03-25T10:16:48;98216.03;;;11.16;54.08
10921;BME280;5513;50.580;8.818;2024-03-25T10:19:33;98217.44;;;11.32;55.69
10921;BME280;5513;50.580;8.818;2024-03-25T10:22:18;98205.31;;;13.82;53.64
10921;BME280;5513;50.580;8.818;2024-03-25T10:25:03;98197.47;;;14.37;50.88
10921;BME280;5513;50.580;8.818;2024-03-25T10:27:59;98163.19;;;16.29;44.89
10921;BME280;5513;50.580;8.818;2024-03-25T10:30:45;98161.09;;;17.42;41.02
10921;BME280;5513;50.580;8.818;2024-03-25T10:33:30;98153.94;;;16.84;41.34
10921;BME280;5513;50.580;8.818;2024-03-25T10:36:15;98139.09;;;18.28;39.41
10921;BME280;5513;50.580;8.818;2024-03-25T10:39:02;98126.47;;;19.38;37.23
10921;BME280;5513;50.580;8.818;2024-03-25T10:41:48;98113.06;;;21.45;34.40
10921;BME280;5513;50.580;8.818;2024-03-25T10:44:36;98112.09;;;19.77;35.10
10921;BME280;5513;50.580;8.818;2024-03-25T10:47:25;98137.06;;;16.49;38.25
10921;BME280;5513;50.580;8.818;2024-03-25T10:50:14;98138.72;;;15.46;40.21
10921;BME280;5513;50.580;8.818;2024-03-25T10:53:02;98136.00;;;17.51;38.92
10921;BME280;5513;50.580;8.818;2024-03-25T10:55:52;98105.59;;;18.71;35.73
10921;BME280;5513;50.580;8.818;2024-03-25T10:58:38;98085.75;;;19.49;34.10
10921;BME280;5513;50.580;8.818;2024-03-25T11:01:26;98104.53;;;17.78;35.97
10921;BME280;5513;50.580;8.818;2024-03-25T11:04:11;98121.06;;;15.28;40.57
10921;BME280;5513;50.580;8.818;2024-03-25T11:07:06;98103.25;;;18.68;37.25
10921;BME280;5513;50.580;8.818;2024-03-25T11:09:51;98086.78;;;19.71;34.93
10921;BME280;5513;50.580;8.818;2024-03-25T11:12:49;98073.00;;;20.33;33.64
10921;BME280;5513;50.580;8.818;2024-03-25T11:15:36;98087.78;;;17.67;37.40
10921;BME280;5513;50.580;8.818;2024-03-25T11:18:24;98098.84;;;16.65;38.73
10921;BME280;5513;50.580;8.818;2024-03-25T11:21:10;98104.47;;;15.60;40.10
10921;BME280;5513;50.580;8.818;2024-03-25T11:24:06;98089.94;;;15.54;39.65
10921;BME280;5513;50.580;8.818;2024-03-25T11:26:52;98072.72;;;19.23;37.20
10921;BME280;5513;50.580;8.818;2024-03-25T11:29:37;98049.94;;;21.88;32.52
10921;BME280;5513;50.580;8.818;2024-03-25T11:32:22;98027.56;;;24.42;28.64
10921;BME280;5513;50.580;8.818;2024-03-25T11:35:10;98020.69;;;25.23;27.64
10921;BME280;5513;50.580;8.818;2024-03-25T11:37:54;98016.06;;;23.62;28.28
10921;BME280;5513;50.580;8.818;2024-03-25T11:40:42;98029.38;;;22.56;29.20
10921;BME280;5513;50.580;8.818;2024-03-25T11:43:28;98030.00;;;21.27;30.73
10921;BME280;5513;50.580;8.818;2024-03-25T11:46:17;98033.53;;;19.89;32.55
10921;BME280;5513;50.580;8.818;2024-03-25T11:49:02;98038.22;;;19.87;32.98
10921;BME280;5513;50.580;8.818;2024-03-25T11:51:48;98033.56;;;19.29;33.02
10921;BME280;5513;50.580;8.818;2024-03-25T11:54:33;98007.88;;;22.22;29.82
10921;BME280;5513;50.580;8.818;2024-03-25T11:57:18;98027.22;;;19.44;32.81
10921;BME280;5513;50.580;8.818;2024-03-25T12:00:04;98043.78;;;17.45;36.25
10921;BME280;5513;50.580;8.818;2024-03-25T12:02:57;98050.53;;;16.58;36.86
10921;BME280;5513;50.580;8.818;2024-03-25T12:05:42;98057.69;;;17.00;37.59
10921;BME280;5513;50.580;8.818;2024-03-25T12:08:29;98045.50;;;16.47;36.66
10921;BME280;5513;50.580;8.818;2024-03-25T12:11:14;98040.44;;;17.27;35.69
10921;BME280;5513;50.580;8.818;2024-03-25T12:14:04;98038.25;;;17.55;36.17
10921;BME280;5513;50.580;8.818;2024-03-25T12:16:49;98012.03;;;19.37;33.62
10921;BME280;5513;50.580;8.818;2024-03-25T12:19:34;98000.13;;;18.40;33.95
10921;BME280;5513;50.580;8.818;2024-03-25T12:22:19;97990.19;;;20.43;32.24
10921;BME280;5513;50.580;8.818;2024-03-25T12:25:06;97968.00;;;23.45;28.99
10921;BME280;5513;50.580;8.818;2024-03-25T12:27:51;97965.03;;;23.99;28.48
10921;BME280;5513;50.580;8.818;2024-03-25T12:30:49;97944.41;;;25.19;27.02
10921;BME280;5513;50.580;8.818;2024-03-25T12:33:40;97931.84;;;26.05;26.41
10921;BME280;5513;50.580;8.818;2024-03-25T12:36:25;97925.06;;;26.62;25.32
10921;BME280;5513;50.580;8.818;2024-03-25T12:39:15;97924.94;;;25.47;26.77
10921;BME280;5513;50.580;8.818;2024-03-25T12:42:05;97917.75;;;26.14;26.15
10921;BME280;5513;50.580;8.818;2024-03-25T12:44:50;97919.34;;;26.04;25.83
10921;BME280;5513;50.580;8.818;2024-03-25T12:47:35;97920.75;;;24.70;26.03
10921;BME280;5513;50.580;8.818;2024-03-25T12:50:20;97912.69;;;25.63;25.64
10921;BME280;5513;50.580;8.818;2024-03-25T12:53:05;97909.50;;;24.73;25.79
10921;BME280;5513;50.580;8.818;2024-03-25T12:55:50;97906.50;;;25.13;24.63
10921;BME280;5513;50.580;8.818;2024-03-25T12:58:36;97893.16;;;25.36;25.10
10921;BME280;5513;50.580;8.818;2024-03-25T13:01:21;97896.31;;;23.29;25.38
10921;BME280;5513;50.580;8.818;2024-03-25T13:04:06;97885.66;;;24.18;24.72
10921;BME280;5513;50.580;8.818;2024-03-25T13:06:51;97882.50;;;24.91;24.31
10921;BME280;5513;50.580;8.818;2024-03-25T13:09:36;97875.13;;;25.23;24.47
10921;BME280;5513;50.580;8.818;2024-03-25T13:12:21;97868.50;;;23.93;24.37
10921;BME280;5513;50.580;8.818;2024-03-25T13:15:08;97874.78;;;24.32;24.82
10921;BME280;5513;50.580;8.818;2024-03-25T13:17:52;97860.31;;;25.62;23.91
10921;BME280;5513;50.580;8.818;2024-03-25T13:20:37;97860.59;;;24.93;24.50
10921;BME280;5513;50.580;8.818;2024-03-25T13:23:23;97870.22;;;24.25;24.40
10921;BME280;5513;50.580;8.818;2024-03-25T13:26:07;97843.63;;;26.14;22.08
10921;BME280;5513;50.580;8.818;2024-03-25T13:28:53;97833.88;;;26.24;23.28
10921;BME280;5513;50.580;8.818;2024-03-25T13:31:39;97845.31;;;24.98;24.60
10921;BME280;5513;50.580;8.818;2024-03-25T13:34:24;97842.19;;;25.81;24.39
10921;BME280;5513;50.580;8.818;2024-03-25T13:37:11;97858.19;;;24.78;25.49
10921;BME280;5513;50.580;8.818;2024-03-25T13:39:56;97833.97;;;25.69;23.50
10921;BME280;5513;50.580;8.818;2024-03-25T13:42:41;97817.44;;;26.49;22.07
10921;BME280;5513;50.580;8.818;2024-03-25T13:45:26;97812.28;;;28.50;20.60
10921;BME280;5513;50.580;8.818;2024-03-25T13:48:12;97822.19;;;28.11;22.32
10921;BME280;5513;50.580;8.818;2024-03-25T13:50:56;97833.38;;;27.86;22.87
10921;BME280;5513;50.580;8.818;2024-03-25T13:53:41;97812.50;;;29.33;21.22
10921;BME280;5513;50.580;8.818;2024-03-25T13:56:26;97817.97;;;28.66;21.63
10921;BME280;5513;50.580;8.818;2024-03-25T13:59:11;97802.88;;;29.25;20.80
10921;BME280;5513;50.580;8.818;2024-03-25T14:01:56;97815.47;;;27.50;22.56
10921;BME280;5513;50.580;8.818;2024-03-25T14:04:42;97813.97;;;26.01;22.85
10921;BME280;5513;50.580;8.818;2024-03-25T14:07:27;97809.53;;;27.65;22.81
10921;BME280;5513;50.580;8.818;2024-03-25T14:10:13;97796.72;;;28.96;21.52
10921;BME280;5513;50.580;8.818;2024-03-25T14:12:58;97802.75;;;27.79;22.99
10921;BME280;5513;50.580;8.818;2024-03-25T14:15:42;97795.91;;;29.34;21.58
10921;BME280;5513;50.580;8.818;2024-03-25T14:18:27;97800.75;;;28.77;22.62
10921;BME280;5513;50.580;8.818;2024-03-25T14:21:14;97791.28;;;29.57;21.28
10921;BME280;5513;50.580;8.818;2024-03-25T14:23:59;97784.78;;;28.35;22.65
10921;BME280;5513;50.580;8.818;2024-03-25T14:26:44;97765.97;;;30.10;20.65
10921;BME280;5513;50.580;8.818;2024-03-25T14:29:29;97775.66;;;29.52;21.17
10921;BME280;5513;50.580;8.818;2024-03-25T14:32:13;97778.22;;;28.19;22.26
10921;BME280;5513;50.580;8.818;2024-03-25T14:34:58;97772.50;;;29.22;22.00
10921;BME280;5513;50.580;8.818;2024-03-25T14:37:45;97771.34;;;29.34;20.78
10921;BME280;5513;50.580;8.818;2024-03-25T14:40:29;97767.44;;;29.08;21.40
10921;BME280;5513;50.580;8.818;2024-03-25T14:43:14;97760.84;;;28.88;21.53
10921;BME280;5513;50.580;8.818;2024-03-25T14:45:59;97743.91;;;29.63;20.39
10921;BME280;5513;50.580;8.818;2024-03-25T14:48:44;97751.19;;;28.63;22.14
10921;BME280;5513;50.580;8.818;2024-03-25T14:51:29;97745.13;;;29.77;21.31